Time;durP1;ratioP1;P1;durP2;ratioP2;P2;SDS_P1;SDS_P2;PMS_P1;PMS_P2;Temp;Humidity;BMP_temperature;BMP_pressure;BME280_temperature;BME280_humidity;BME280_pressure;Samples;Min_cycle;Max_cycle;Signal;HPM_P1;HPM_P2
2021/04/06 03:46:36;;;;;;;0.60;0.60;;;18.40;57.90;;;;;;5109601;27;20396;-49
2021/04/06 03:49:11;;;;;;;0.47;0.43;;;18.60;57.40;;;;;;5109128;28;20026;-51
2021/04/06 03:51:37;;;;;;;0.60;0.60;;;18.70;57.00;;;;;;5108744;28;20085;-53
2021/04/06 03:54:03;;;;;;;0.60;0.60;;;18.70;57.20;;;;;;5108515;28;20435;-53
2021/04/06 03:56:32;;;;;;;0.60;0.60;;;18.70;56.90;;;;;;5109043;28;20028;-51
2021/04/06 03:58:58;;;;;;;0.57;0.40;;;18.70;56.80;;;;;;5108999;28;20450;-52
2021/04/06 04:01:25;;;;;;;0.55;0.55;;;18.70;56.70;;;;;;5109236;28;20051;-51
2021/04/06 04:03:54;;;;;;;0.40;0.40;;;18.70;56.70;;;;;;5109202;28;20028;-48
2021/04/06 04:06:23;;;;;;;0.50;0.40;;;18.80;57.20;;;;;;5109578;28;20012;-51
2021/04/06 04:08:49;;;;;;;0.95;0.50;;;18.70;57.00;;;;;;5103132;28;20074;-50
2021/04/06 04:11:14;;;;;;;0.60;0.60;;;18.70;56.60;;;;;;5108884;28;20094;-53
2021/04/06 04:13:40;;;;;;;0.40;0.40;;;18.70;56.70;;;;;;5108725;28;20496;-50
2021/04/06 04:16:05;;;;;;;0.40;0.40;;;18.70;56.90;;;;;;5109059;28;20074;-48
2021/04/06 04:18:31;;;;;;;0.50;0.50;;;18.70;56.90;;;;;;5109206;28;20072;-53
2021/04/06 04:20:57;;;;;;;0.50;0.50;;;18.70;57.00;;;;;;5105987;28;20034;-51
2021/04/06 04:23:22;;;;;;;0.65;0.65;;;18.70;57.30;;;;;;5104044;28;20059;-50
2021/04/06 04:25:48;;;;;;;0.75;0.73;;;18.70;57.70;;;;;;5107913;28;20529;-51
2021/04/06 04:28:13;;;;;;;0.52;0.52;;;18.70;57.20;;;;;;5108656;28;20042;-50
2021/04/06 04:30:41;;;;;;;0.77;0.77;;;18.70;57.60;;;;;;5108594;28;20124;-55
2021/04/06 04:33:07;;;;;;;0.50;0.50;;;18.80;56.60;;;;;;5109026;28;20028;-53
2021/04/06 04:35:33;;;;;;;0.85;0.57;;;18.70;56.80;;;;;;5107877;28;20409;-50
2021/04/06 04:37:59;;;;;;;0.60;0.60;;;18.70;57.40;;;;;;5108226;28;20028;-51
2021/04/06 04:40:24;;;;;;;1.10;0.60;;;18.70;56.70;;;;;;5097719;28;20568;-53
2021/04/06 04:42:52;;;;;;;0.85;0.60;;;18.70;56.90;;;;;;5108209;28;20024;-49
2021/04/06 04:45:18;;;;;;;0.60;0.60;;;18.70;56.70;;;;;;5104438;28;20059;-52
2021/04/06 04:47:43;;;;;;;0.63;0.63;;;18.70;57.30;;;;;;5093737;28;20543;-52
2021/04/06 04:50:09;;;;;;;0.40;0.40;;;18.70;57.10;;;;;;5094554;28;20111;-49
2021/04/06 04:52:35;;;;;;;0.60;0.60;;;18.70;56.80;;;;;;5093941;28;20024;-50
2021/04/06 04:55:00;;;;;;;0.70;0.70;;;18.70;56.80;;;;;;5078598;28;20119;-55
2021/04/06 04:57:26;;;;;;;0.70;0.70;;;18.70;56.70;;;;;;5090530;28;20032;-52
2021/04/06 04:59:52;;;;;;;1.05;0.70;;;18.70;56.70;;;;;;5091147;28;20040;-51
2021/04/06 05:02:17;;;;;;;0.60;0.60;;;18.60;57.30;;;;;;5088849;28;20027;-51
2021/04/06 05:04:43;;;;;;;0.60;0.60;;;18.70;56.80;;;;;;5084417;28;20070;-49
2021/04/06 05:07:08;;;;;;;0.68;0.68;;;18.70;57.20;;;;;;5094370;28;20481;-53
2021/04/06 05:09:34;;;;;;;0.60;0.60;;;18.60;57.00;;;;;;5091094;28;20081;-54
2021/04/06 05:11:59;;;;;;;0.70;0.60;;;18.60;57.00;;;;;;5093246;28;20138;-50
2021/04/06 05:14:25;;;;;;;0.70;0.70;;;18.60;56.90;;;;;;5086379;28;20036;-57
2021/04/06 05:16:50;;;;;;;4.03;0.65;;;18.60;57.10;;;;;;5090465;28;20140;-53
2021/04/06 05:19:16;;;;;;;0.60;0.60;;;18.60;56.50;;;;;;5088320;28;20058;-51
2021/04/06 05:21:41;;;;;;;0.70;0.60;;;18.60;56.80;;;;;;5089016;28;20021;-50
2021/04/06 05:24:08;;;;;;;0.88;0.60;;;18.60;56.60;;;;;;5088467;28;20405;-50
2021/04/06 05:26:33;;;;;;;0.50;0.45;;;18.60;56.40;;;;;;5087020;28;20093;-50
2021/04/06 05:28:59;;;;;;;0.50;0.50;;;18.60;57.40;;;;;;5084482;28;20063;-54
2021/04/06 05:31:24;;;;;;;0.60;0.50;;;18.60;57.50;;;;;;5090163;28;20035;-54
2021/04/06 05:33:54;;;;;;;0.40;0.40;;;18.60;57.50;;;;;;5086528;28;20531;-51
2021/04/06 05:36:19;;;;;;;0.45;0.45;;;18.60;57.50;;;;;;5088821;28;20454;-52
2021/04/06 05:38:45;;;;;;;0.68;0.68;;;18.60;56.70;;;;;;5086544;28;20094;-51
2021/04/06 05:41:11;;;;;;;1.23;0.60;;;18.60;57.60;;;;;;5084179;28;20501;-52
2021/04/06 05:43:37;;;;;;;0.50;0.50;;;18.60;57.60;;;;;;5068988;28;20024;-51
2021/04/06 05:46:02;;;;;;;0.52;0.50;;;18.60;57.10;;;;;;5075057;28;20405;-48
2021/04/06 05:48:28;;;;;;;0.50;0.50;;;18.60;57.10;;;;;;5076221;28;20042;-51
2021/04/06 05:50:53;;;;;;;0.60;0.50;;;18.60;57.70;;;;;;5087621;28;20527;-52
2021/04/06 05:53:22;;;;;;;0.40;0.40;;;18.60;57.10;;;;;;5093134;28;20104;-53
2021/04/06 05:55:51;;;;;;;0.57;0.57;;;18.60;57.10;;;;;;5092714;28;20081;-53
2021/04/06 05:58:16;;;;;;;0.63;0.63;;;18.60;57.20;;;;;;5092100;28;20512;-52
2021/04/06 06:00:42;;;;;;;0.50;0.50;;;18.60;56.90;;;;;;5093036;28;20028;-51
2021/04/06 06:03:09;;;;;;;0.50;0.50;;;18.60;57.60;;;;;;5092408;28;20024;-51
2021/04/06 06:05:35;;;;;;;0.40;0.40;;;18.60;57.20;;;;;;5087205;28;20032;-49
2021/04/06 06:08:09;;;;;;;0.50;0.50;;;18.60;57.30;;;;;;5070604;28;20080;-52
2021/04/06 06:10:35;;;;;;;0.68;0.40;;;18.60;56.20;;;;;;5092504;28;20024;-53
2021/04/06 06:13:26;;;;;;;0.60;0.60;;;18.70;56.10;;;;;;5091874;28;20472;-50
2021/04/06 06:16:13;;;;;;;0.50;0.50;;;18.60;55.80;;;;;;5092582;28;20097;-48
2021/04/06 06:18:58;;;;;;;0.40;0.40;;;18.60;56.30;;;;;;5089455;28;20024;-49
2021/04/06 06:21:43;;;;;;;0.40;0.40;;;18.50;56.40;;;;;;5093271;28;20024;-52
2021/04/06 06:24:10;;;;;;;0.47;0.43;;;18.50;56.60;;;;;;5091104;28;20024;-54
2021/04/06 06:26:36;;;;;;;0.30;0.30;;;18.50;56.60;;;;;;5092061;28;20035;-57
2021/04/06 06:29:02;;;;;;;1.60;0.40;;;18.50;56.40;;;;;;5091559;28;20016;-54
2021/04/06 06:31:35;;;;;;;1.17;0.82;;;18.50;56.60;;;;;;5092395;28;20036;-56
2021/04/06 06:34:01;;;;;;;0.60;0.55;;;18.50;56.60;;;;;;5076879;28;20047;-51
2021/04/06 06:36:26;;;;;;;0.50;0.50;;;18.50;56.20;;;;;;5093520;28;20024;-52
2021/04/06 06:38:52;;;;;;;0.40;0.40;;;18.50;56.60;;;;;;5092526;28;20036;-52
2021/04/06 06:41:20;;;;;;;0.40;0.40;;;18.60;55.60;;;;;;5069384;28;20039;-52
2021/04/06 06:43:55;;;;;;;0.60;0.60;;;18.60;56.50;;;;;;5088069;28;20032;-53
2021/04/06 06:46:31;;;;;;;0.80;0.50;;;18.60;56.30;;;;;;5087019;28;20060;-55
2021/04/06 06:49:03;;;;;;;0.93;0.57;;;18.60;56.40;;;;;;5086430;28;20024;-54
2021/04/06 06:51:36;;;;;;;1.65;0.52;;;18.60;56.60;;;;;;5088559;28;20059;-51
2021/04/06 06:54:02;;;;;;;0.60;0.55;;;18.60;57.50;;;;;;5090859;28;20444;-51
2021/04/06 06:56:35;;;;;;;0.93;0.60;;;18.60;56.60;;;;;;5091782;28;20078;-54
2021/04/06 06:59:01;;;;;;;1.20;0.73;;;18.60;56.30;;;;;;5090825;28;20047;-52
2021/04/06 07:01:28;;;;;;;0.90;0.60;;;18.60;57.00;;;;;;5091328;28;20058;-54
2021/04/06 07:04:20;;;;;;;1.05;0.47;;;18.60;56.80;;;;;;5090822;28;20032;-53
2021/04/06 07:06:46;;;;;;;1.58;0.68;;;18.60;56.80;;;;;;5086280;28;20078;-50
2021/04/06 07:09:25;;;;;;;4.10;0.98;;;18.60;57.20;;;;;;5088353;28;20398;-49
2021/04/06 07:11:58;;;;;;;1.95;0.80;;;18.50;57.40;;;;;;5089710;28;20030;-52
2021/04/06 07:14:24;;;;;;;0.90;0.90;;;18.50;56.90;;;;;;5091270;28;20406;-52
2021/04/06 07:16:50;;;;;;;0.93;0.60;;;18.60;56.10;;;;;;5078746;28;20055;-49
2021/04/06 07:19:17;;;;;;;0.80;0.80;;;18.70;56.70;;;;;;5076307;28;20190;-55
2021/04/06 07:21:43;;;;;;;2.78;0.57;;;18.70;55.60;;;;;;5067749;28;20025;-48
2021/04/06 07:24:10;;;;;;;0.55;0.55;;;18.70;55.40;;;;;;5065246;28;20020;-54
2021/04/06 07:26:35;;;;;;;0.60;0.60;;;18.70;55.90;;;;;;5076534;28;20032;-56
2021/04/06 07:29:01;;;;;;;1.00;1.00;;;18.90;55.80;;;;;;4718286;28;9999974;-54
2021/04/06 07:31:27;;;;;;;1.45;0.47;;;18.90;56.80;;;;;;5068657;28;20044;-54
2021/04/06 07:33:52;;;;;;;1.08;0.70;;;18.90;56.50;;;;;;5072341;28;20111;-57
2021/04/06 07:36:23;;;;;;;2.08;0.82;;;18.80;56.70;;;;;;5077548;28;20642;-49
2021/04/06 07:38:53;;;;;;;1.63;0.82;;;18.70;57.50;;;;;;5077613;28;20048;-52
2021/04/06 07:41:24;;;;;;;1.77;0.80;;;18.70;57.10;;;;;;5061914;28;20534;-54
2021/04/06 07:43:50;;;;;;;2.05;0.80;;;18.70;56.70;;;;;;5061509;28;20028;-58
2021/04/06 07:46:34;;;;;;;1.35;0.90;;;18.70;56.80;;;;;;5068946;28;20124;-55
2021/04/06 07:49:21;;;;;;;0.60;0.60;;;18.80;57.60;;;;;;5071811;28;20114;-52
2021/04/06 07:51:54;;;;;;;2.10;0.90;;;18.90;56.70;;;;;;5077880;28;20028;-51
2021/04/06 07:54:23;;;;;;;2.85;0.65;;;19.00;56.30;;;;;;5071798;28;20114;-61
2021/04/06 07:56:50;;;;;;;0.77;0.77;;;19.10;56.60;;;;;;5082710;28;20580;-61
2021/04/06 07:59:24;;;;;;;0.65;0.60;;;19.10;56.60;;;;;;5075834;28;20032;-61
2021/04/06 08:01:50;;;;;;;0.75;0.63;;;19.00;56.20;;;;;;5072746;28;21454;-53
2021/04/06 08:04:16;;;;;;;3.33;0.70;;;19.00;56.60;;;;;;5072500;28;20039;-58
2021/04/06 08:06:48;;;;;;;1.05;0.82;;;18.90;56.70;;;;;;5082987;28;20098;-62
2021/04/06 08:09:33;;;;;;;0.70;0.70;;;19.00;56.70;;;;;;5074745;28;20021;-61
2021/04/06 08:12:13;;;;;;;0.80;0.60;;;19.10;56.10;;;;;;5079311;28;20023;-58
2021/04/06 08:14:40;;;;;;;2.05;0.80;;;19.10;56.00;;;;;;5086109;28;20036;-60
2021/04/06 08:17:24;;;;;;;1.17;0.60;;;19.10;57.00;;;;;;5072694;28;20827;-60
2021/04/06 08:19:50;;;;;;;1.20;0.80;;;19.00;56.40;;;;;;5082413;28;20101;-61
2021/04/06 08:22:22;;;;;;;2.65;0.80;;;19.00;56.50;;;;;;5081590;28;21124;-60
2021/04/06 08:24:48;;;;;;;0.70;0.70;;;19.10;56.30;;;;;;5085607;28;20044;-58
2021/04/06 08:27:36;;;;;;;0.60;0.60;;;19.00;56.30;;;;;;5078460;28;20379;-58
2021/04/06 08:30:24;;;;;;;1.17;0.65;;;19.10;56.20;;;;;;5083258;28;20548;-59
2021/04/06 08:32:59;;;;;;;3.72;0.80;;;19.10;56.00;;;;;;5080420;28;20568;-60
2021/04/06 08:35:43;;;;;;;2.15;0.63;;;19.20;56.00;;;;;;5087190;28;20044;-56
2021/04/06 08:38:31;;;;;;;0.70;0.70;;;19.20;55.50;;;;;;5081418;28;20558;-52
2021/04/06 08:41:12;;;;;;;1.10;1.00;;;19.30;55.50;;;;;;5077296;28;20036;-58
2021/04/06 08:43:51;;;;;;;0.63;0.63;;;19.30;55.20;;;;;;5080322;28;20520;-64
2021/04/06 08:46:35;;;;;;;1.13;0.80;;;19.30;55.30;;;;;;5074296;28;20040;-60
2021/04/06 08:49:01;;;;;;;1.30;0.70;;;19.30;55.40;;;;;;5084269;28;20054;-60
2021/04/06 08:51:26;;;;;;;1.08;0.70;;;19.30;55.60;;;;;;5084248;28;20750;-59
2021/04/06 08:54:00;;;;;;;1.00;0.65;;;19.30;55.30;;;;;;5079402;28;20044;-59
2021/04/06 08:56:30;;;;;;;0.87;0.70;;;19.30;55.30;;;;;;5076108;28;20045;-58
2021/04/06 08:59:24;;;;;;;0.70;0.60;;;19.30;55.40;;;;;;5080650;28;20491;-58
2021/04/06 09:02:19;;;;;;;1.10;1.00;;;19.30;55.20;;;;;;5077714;28;20047;-54
2021/04/06 09:04:46;;;;;;;0.95;0.85;;;19.30;55.20;;;;;;5078208;28;20072;-59
2021/04/06 09:07:31;;;;;;;2.80;0.75;;;19.30;55.40;;;;;;5075944;28;20120;-47
2021/04/06 09:10:03;;;;;;;1.02;0.70;;;19.40;55.80;;;;;;5080317;28;20056;-55
2021/04/06 09:12:29;;;;;;;1.05;0.70;;;19.40;56.20;;;;;;5078411;28;20024;-55
2021/04/06 09:14:55;;;;;;;0.55;0.55;;;19.40;57.00;;;;;;5076624;28;20043;-56
2021/04/06 09:17:29;;;;;;;0.60;0.50;;;19.50;56.00;;;;;;5083563;28;20020;-59
2021/04/06 09:19:54;;;;;;;2.92;0.77;;;19.70;55.60;;;;;;5076469;28;20073;-54
2021/04/06 09:22:20;;;;;;;0.60;0.47;;;19.80;55.80;;;;;;5090128;28;20036;-53
2021/04/06 09:24:45;;;;;;;0.70;0.70;;;19.90;55.60;;;;;;5097475;28;20024;-62
2021/04/06 09:27:11;;;;;;;0.60;0.60;;;20.00;56.50;;;;;;5083020;28;20043;-53
2021/04/06 09:29:38;;;;;;;0.70;0.60;;;20.10;55.00;;;;;;5080722;28;20064;-61
2021/04/06 09:32:09;;;;;;;0.50;0.50;;;20.20;54.80;;;;;;5076565;28;20108;-59
2021/04/06 09:34:39;;;;;;;0.68;0.68;;;20.30;55.00;;;;;;5087484;28;20126;-61
2021/04/06 09:37:07;;;;;;;0.70;0.50;;;20.40;54.90;;;;;;5086838;28;20528;-60
2021/04/06 09:39:33;;;;;;;2.15;0.60;;;20.40;54.80;;;;;;5080056;28;20059;-60
2021/04/06 09:41:59;;;;;;;0.60;0.45;;;20.40;55.60;;;;;;5086700;28;20044;-61
2021/04/06 09:44:28;;;;;;;1.58;0.60;;;20.40;55.10;;;;;;5079788;28;20040;-57
2021/04/06 09:46:56;;;;;;;0.63;0.43;;;20.50;55.60;;;;;;5081313;28;20032;-59
2021/04/06 09:49:22;;;;;;;0.98;0.60;;;20.40;55.20;;;;;;5079968;28;20036;-54
2021/04/06 09:51:52;;;;;;;0.85;0.60;;;20.50;54.80;;;;;;5075815;28;20032;-59
2021/04/06 09:54:30;;;;;;;0.52;0.52;;;20.50;54.90;;;;;;5083582;28;20036;-60
2021/04/06 09:56:56;;;;;;;0.60;0.55;;;20.50;54.80;;;;;;5080319;28;20107;-60
2021/04/06 09:59:22;;;;;;;1.05;0.50;;;20.50;54.70;;;;;;5076282;28;20031;-59
2021/04/06 10:01:49;;;;;;;4.95;0.80;;;20.60;54.60;;;;;;5060323;28;20021;-58
2021/04/06 10:04:15;;;;;;;1.27;0.60;;;20.60;54.50;;;;;;5080812;28;20531;-57
2021/04/06 10:06:44;;;;;;;1.30;0.77;;;20.60;54.60;;;;;;5077755;28;20036;-58
2021/04/06 10:09:24;;;;;;;1.55;0.68;;;20.60;54.30;;;;;;5081653;28;20032;-51
2021/04/06 10:11:50;;;;;;;1.60;0.90;;;20.70;54.10;;;;;;5074634;28;20024;-56
2021/04/06 10:14:16;;;;;;;0.70;0.63;;;20.70;54.00;;;;;;5074996;28;20040;-52
2021/04/06 10:16:42;;;;;;;0.68;0.68;;;20.70;54.50;;;;;;5079296;28;20481;-43
2021/04/06 10:19:25;;;;;;;0.40;0.40;;;20.70;53.60;;;;;;5079283;28;20032;-56
2021/04/06 10:22:02;;;;;;;0.40;0.38;;;20.70;53.30;;;;;;5078894;28;20024;-54
2021/04/06 10:24:30;;;;;;;0.90;0.50;;;20.70;53.00;;;;;;5078722;28;20670;-52
2021/04/06 10:27:04;;;;;;;0.40;0.40;;;20.60;53.20;;;;;;5079365;28;20492;-48
2021/04/06 10:29:33;;;;;;;0.88;0.65;;;20.70;53.80;;;;;;5074277;28;20116;-54
2021/04/06 10:32:00;;;;;;;3.08;1.08;;;20.70;53.00;;;;;;5074437;28;20096;-52
2021/04/06 10:34:26;;;;;;;3.22;2.20;;;20.70;53.40;;;;;;5081165;28;20509;-53
2021/04/06 10:37:10;;;;;;;4.57;2.28;;;20.80;53.30;;;;;;5083361;28;20032;-55
2021/04/06 10:39:39;;;;;;;4.72;2.47;;;20.80;54.60;;;;;;5081841;28;20028;-53
2021/04/06 10:42:07;;;;;;;3.45;2.70;;;20.80;54.90;;;;;;5078964;28;20085;-56
2021/04/06 10:44:33;;;;;;;2.80;2.60;;;20.80;54.70;;;;;;5080154;28;20044;-49
2021/04/06 10:46:58;;;;;;;3.35;2.42;;;20.80;55.00;;;;;;5080309;28;20047;-53
2021/04/06 10:49:24;;;;;;;4.35;2.53;;;20.90;54.40;;;;;;5083392;28;20020;-55
2021/04/06 10:51:52;;;;;;;3.50;2.25;;;20.90;54.90;;;;;;5081772;28;20027;-52
2021/04/06 10:54:18;;;;;;;3.08;2.33;;;20.90;53.90;;;;;;5080616;28;20579;-47
2021/04/06 10:56:47;;;;;;;6.63;2.20;;;21.00;54.10;;;;;;5058438;28;20020;-56
2021/04/06 10:59:14;;;;;;;4.05;2.47;;;21.00;55.20;;;;;;5076825;28;20124;-57
2021/04/06 11:01:45;;;;;;;2.20;2.00;;;21.00;55.00;;;;;;5074646;28;20039;-56
2021/04/06 11:04:13;;;;;;;4.75;2.50;;;21.00;55.50;;;;;;5078369;28;20023;-59
2021/04/06 11:06:44;;;;;;;4.60;2.63;;;21.00;55.50;;;;;;5076363;28;20031;-60
2021/04/06 11:09:40;;;;;;;3.35;2.50;;;21.00;55.70;;;;;;5077348;28;20056;-58
2021/04/06 11:12:11;;;;;;;3.10;2.03;;;20.90;54.60;;;;;;5073591;28;20047;-60
2021/04/06 11:14:37;;;;;;;3.33;2.42;;;20.90;55.30;;;;;;5078020;28;20039;-59
2021/04/06 11:17:07;;;;;;;2.33;1.90;;;20.90;55.00;;;;;;5071509;28;20048;-58
2021/04/06 11:19:33;;;;;;;2.20;2.00;;;20.80;54.90;;;;;;5078231;28;20082;-58
2021/04/06 11:22:01;;;;;;;2.53;2.10;;;20.80;55.20;;;;;;5075741;28;20073;-60
2021/04/06 11:24:28;;;;;;;5.32;2.28;;;20.80;54.90;;;;;;5082133;28;20036;-55
2021/04/06 11:26:54;;;;;;;2.38;1.88;;;20.80;53.90;;;;;;5075059;28;20075;-59
2021/04/06 11:29:21;;;;;;;1.85;1.70;;;20.80;55.20;;;;;;5076321;28;20520;-56
2021/04/06 11:31:52;;;;;;;1.98;1.77;;;20.80;54.70;;;;;;5071707;28;20032;-59
2021/04/06 11:34:18;;;;;;;2.28;2.08;;;20.80;55.40;;;;;;5078954;28;20677;-57
2021/04/06 11:36:45;;;;;;;3.70;1.92;;;20.80;54.90;;;;;;5079169;28;20107;-56
2021/04/06 11:39:12;;;;;;;2.17;1.90;;;20.80;55.10;;;;;;5077413;28;20021;-57
2021/04/06 11:41:39;;;;;;;3.95;1.50;;;20.90;55.90;;;;;;5074092;28;20039;-61
2021/04/06 11:44:05;;;;;;;5.07;1.90;;;20.90;55.80;;;;;;5078137;28;20020;-60
2021/04/06 11:46:32;;;;;;;3.58;2.45;;;21.10;55.10;;;;;;5078033;28;20062;-51
2021/04/06 11:48:58;;;;;;;3.67;1.50;;;21.10;54.70;;;;;;5080955;28;20110;-61
2021/04/06 11:51:23;;;;;;;2.75;1.63;;;21.00;55.50;;;;;;5083975;28;20111;-60
2021/04/06 11:53:49;;;;;;;4.38;1.45;;;21.10;55.70;;;;;;5074111;28;20028;-59
2021/04/06 11:56:15;;;;;;;2.25;1.60;;;21.10;55.10;;;;;;5078666;28;20139;-59
2021/04/06 11:58:40;;;;;;;2.10;1.40;;;21.10;54.60;;;;;;5082748;28;20116;-54
2021/04/06 12:01:06;;;;;;;1.77;1.50;;;21.10;55.10;;;;;;5075363;28;20123;-55
2021/04/06 12:03:32;;;;;;;1.83;1.63;;;21.10;54.70;;;;;;5080956;28;20036;-46
2021/04/06 12:05:57;;;;;;;2.25;1.75;;;21.20;54.80;;;;;;5082000;28;20042;-51
2021/04/06 12:08:23;;;;;;;2.05;1.35;;;21.10;54.40;;;;;;5077749;28;20406;-58
2021/04/06 12:10:49;;;;;;;1.58;1.48;;;21.10;55.20;;;;;;5079991;28;20040;-58
2021/04/06 12:13:15;;;;;;;1.85;1.55;;;21.10;55.70;;;;;;5083928;28;20555;-63
2021/04/06 12:15:40;;;;;;;1.77;1.30;;;21.10;54.80;;;;;;5086055;28;20032;-55
2021/04/06 12:18:06;;;;;;;1.92;1.38;;;21.10;55.20;;;;;;5080790;28;20035;-59
2021/04/06 12:20:32;;;;;;;2.85;1.60;;;21.20;54.50;;;;;;5089135;28;20597;-54
2021/04/06 12:22:57;;;;;;;2.78;1.70;;;21.20;55.00;;;;;;5078004;28;20099;-56
2021/04/06 12:25:23;;;;;;;2.00;1.58;;;21.20;55.70;;;;;;5080068;28;20025;-63
2021/04/06 12:27:48;;;;;;;1.48;1.33;;;21.20;55.40;;;;;;5087469;28;20031;-59
2021/04/06 12:30:14;;;;;;;1.50;1.20;;;21.20;55.10;;;;;;5082099;28;20032;-58
2021/04/06 12:32:40;;;;;;;2.58;1.20;;;21.20;54.50;;;;;;5083090;28;20085;-61
2021/04/06 12:35:07;;;;;;;1.40;1.00;;;21.20;54.40;;;;;;5075588;28;20500;-61
2021/04/06 12:37:32;;;;;;;2.20;1.40;;;21.20;54.10;;;;;;5081826;28;20028;-54
2021/04/06 12:39:58;;;;;;;1.20;0.98;;;21.20;54.50;;;;;;5080223;28;20036;-56
2021/04/06 12:42:24;;;;;;;1.42;1.30;;;21.20;54.70;;;;;;5084108;28;20024;-56
2021/04/06 12:44:50;;;;;;;2.00;1.60;;;21.30;54.40;;;;;;5079261;28;20059;-50
2021/04/06 12:47:16;;;;;;;2.00;1.38;;;21.20;54.40;;;;;;5078037;28;20056;-63
2021/04/06 12:49:41;;;;;;;1.60;1.17;;;21.20;54.50;;;;;;5078461;28;20119;-56
2021/04/06 12:52:07;;;;;;;2.50;1.10;;;21.20;54.10;;;;;;5076751;28;20102;-59
2021/04/06 12:54:32;;;;;;;1.17;0.80;;;21.20;54.10;;;;;;5081709;28;20063;-59
2021/04/06 12:56:58;;;;;;;1.67;1.38;;;21.20;54.00;;;;;;5083678;28;20028;-62
2021/04/06 12:59:23;;;;;;;1.38;1.27;;;21.10;53.90;;;;;;5081510;28;20466;-53
2021/04/06 13:01:49;;;;;;;1.75;1.00;;;21.10;54.30;;;;;;5076844;28;20035;-60
2021/04/06 13:04:15;;;;;;;2.08;1.35;;;21.20;54.10;;;;;;5082468;28;20032;-61
2021/04/06 13:06:40;;;;;;;1.70;1.10;;;21.20;53.70;;;;;;5082648;28;20020;-57
2021/04/06 13:09:06;;;;;;;1.38;1.08;;;21.20;54.00;;;;;;5092254;28;20061;-62
2021/04/06 13:11:32;;;;;;;2.40;1.23;;;21.30;53.70;;;;;;5092796;28;20041;-55
2021/04/06 13:14:01;;;;;;;1.50;1.10;;;21.30;54.00;;;;;;5105834;28;20012;-46
2021/04/06 13:16:28;;;;;;;3.63;1.38;;;21.30;54.00;;;;;;5090809;28;20036;-59
2021/04/06 13:18:53;;;;;;;1.58;1.30;;;21.40;54.00;;;;;;5084835;28;20038;-60
2021/04/06 13:21:19;;;;;;;2.58;0.95;;;21.30;53.60;;;;;;5081657;28;20111;-59
2021/04/06 13:23:44;;;;;;;4.60;1.40;;;21.30;54.00;;;;;;5078826;28;20039;-60
2021/04/06 13:26:10;;;;;;;1.73;1.20;;;21.30;53.60;;;;;;5083091;28;20070;-63
2021/04/06 13:28:35;;;;;;;1.40;1.30;;;21.30;53.60;;;;;;5078403;28;20028;-65
2021/04/06 13:31:01;;;;;;;1.08;0.98;;;21.30;53.80;;;;;;5082212;28;20031;-64
2021/04/06 13:33:27;;;;;;;1.23;0.88;;;21.30;54.40;;;;;;5084211;28;20076;-66
2021/04/06 13:35:52;;;;;;;1.00;0.90;;;21.30;53.80;;;;;;5086031;28;20043;-65
2021/04/06 13:38:18;;;;;;;1.10;0.90;;;21.20;53.80;;;;;;5087493;28;20493;-65
2021/04/06 13:40:43;;;;;;;1.40;0.90;;;21.20;53.60;;;;;;5082513;28;20456;-59
2021/04/06 13:43:09;;;;;;;1.02;0.77;;;21.20;53.70;;;;;;5080720;28;20028;-61
2021/04/06 13:45:35;;;;;;;1.30;0.90;;;21.20;53.50;;;;;;5081473;28;20055;-65
2021/04/06 13:48:04;;;;;;;2.20;1.30;;;21.30;53.30;;;;;;5082861;28;20169;-55
2021/04/06 13:50:30;;;;;;;1.83;1.13;;;21.30;53.40;;;;;;5077262;28;20115;-49
2021/04/06 13:52:56;;;;;;;1.83;0.80;;;21.30;54.10;;;;;;5087981;28;20118;-63
2021/04/06 13:55:22;;;;;;;1.60;0.80;;;21.20;53.20;;;;;;5092088;28;20044;-61
2021/04/06 13:57:47;;;;;;;1.00;0.90;;;21.20;53.20;;;;;;5089496;28;20093;-64
2021/04/06 14:00:15;;;;;;;4.35;0.98;;;21.20;53.20;;;;;;5097344;28;20032;-62
2021/04/06 14:02:41;;;;;;;3.78;1.30;;;21.20;53.60;;;;;;5090294;28;20062;-61
2021/04/06 14:05:07;;;;;;;3.10;0.90;;;21.30;53.60;;;;;;5094239;28;20028;-62
2021/04/06 14:07:33;;;;;;;1.15;0.90;;;21.20;53.40;;;;;;5092205;28;20489;-63
2021/04/06 14:09:58;;;;;;;1.10;0.90;;;21.20;53.90;;;;;;5102645;28;20032;-63
2021/04/06 14:12:24;;;;;;;1.45;0.75;;;21.20;53.70;;;;;;5094289;28;20115;-63
2021/04/06 14:14:49;;;;;;;1.92;1.10;;;21.20;53.50;;;;;;5098750;28;20031;-63
2021/04/06 14:17:15;;;;;;;2.45;1.00;;;21.20;53.60;;;;;;5103845;28;20015;-63
2021/04/06 14:19:41;;;;;;;1.42;0.77;;;21.20;53.90;;;;;;5082968;28;20039;-63
2021/04/06 14:22:06;;;;;;;3.70;1.13;;;21.20;54.30;;;;;;5086129;28;20075;-62
2021/04/06 14:24:32;;;;;;;3.65;1.10;;;21.20;54.00;;;;;;5083043;28;20093;-62
2021/04/06 14:26:58;;;;;;;1.88;1.00;;;21.20;54.10;;;;;;5088707;28;20036;-65
2021/04/06 14:29:23;;;;;;;4.32;1.02;;;21.20;53.00;;;;;;5083917;28;20028;-63
2021/04/06 14:31:49;;;;;;;2.85;1.10;;;21.20;50.70;;;;;;5086204;28;20107;-62
2021/04/06 14:34:15;;;;;;;2.85;0.90;;;21.10;49.70;;;;;;5083149;28;20525;-61
2021/04/06 14:36:41;;;;;;;3.53;0.80;;;21.00;48.80;;;;;;5081550;28;20401;-59
2021/04/06 14:39:07;;;;;;;1.85;1.00;;;21.00;47.90;;;;;;5080868;28;20582;-63
2021/04/06 14:41:33;;;;;;;1.52;0.85;;;20.90;48.90;;;;;;5081287;28;20107;-54
2021/04/06 14:43:58;;;;;;;4.68;1.02;;;20.90;47.30;;;;;;5082431;28;20051;-62
2021/04/06 14:46:24;;;;;;;2.80;0.90;;;20.80;46.20;;;;;;5080464;28;20500;-61
2021/04/06 14:48:51;;;;;;;3.53;0.60;;;20.90;41.80;;;;;;5085631;28;20024;-61
2021/04/06 14:51:17;;;;;;;1.65;0.73;;;20.80;45.10;;;;;;5077676;28;20028;-62
2021/04/06 14:53:43;;;;;;;1.27;0.52;;;20.70;42.90;;;;;;5080134;28;20020;-63
2021/04/06 14:56:10;;;;;;;1.70;0.80;;;20.60;45.20;;;;;;5082003;28;20028;-61
2021/04/06 14:58:47;;;;;;;1.75;0.80;;;20.50;44.70;;;;;;5086373;28;20025;-64
2021/04/06 15:01:12;;;;;;;1.90;0.70;;;20.50;44.50;;;;;;5086964;28;20032;-56
2021/04/06 15:03:38;;;;;;;2.17;0.52;;;20.40;44.20;;;;;;5082370;28;20024;-62
2021/04/06 15:06:05;;;;;;;4.60;0.80;;;20.40;44.60;;;;;;5083878;28;20409;-60
2021/04/06 15:08:30;;;;;;;0.85;0.57;;;20.40;43.90;;;;;;5087687;28;20103;-65
2021/04/06 15:11:00;;;;;;;1.50;0.50;;;20.40;44.10;;;;;;5071299;28;20058;-62
2021/04/06 15:13:27;;;;;;;1.38;0.63;;;20.40;45.30;;;;;;5085305;28;20116;-56
2021/04/06 15:15:55;;;;;;;1.95;0.47;;;20.40;43.90;;;;;;5087850;28;20078;-53
2021/04/06 15:18:20;;;;;;;1.42;0.50;;;20.40;43.70;;;;;;5087271;28;20036;-64
2021/04/06 15:20:46;;;;;;;4.97;0.75;;;20.40;41.50;;;;;;5091548;28;20028;-66
2021/04/06 15:23:12;;;;;;;4.55;0.70;;;20.40;43.30;;;;;;5082149;28;20050;-62
2021/04/06 15:25:38;;;;;;;1.50;0.60;;;20.40;40.90;;;;;;5080710;28;20502;-64
2021/04/06 15:28:04;;;;;;;1.02;0.52;;;20.40;42.60;;;;;;5088394;28;20523;-64
2021/04/06 15:30:30;;;;;;;1.55;0.60;;;20.30;47.30;;;;;;5077885;28;20037;-64
2021/04/06 15:32:57;;;;;;;0.88;0.40;;;20.20;45.80;;;;;;5084364;28;20028;-64
2021/04/06 15:35:23;;;;;;;2.22;0.60;;;20.20;45.20;;;;;;5081857;28;20045;-62
2021/04/06 15:37:49;;;;;;;2.35;0.95;;;20.20;46.00;;;;;;5085770;28;20032;-62
2021/04/06 15:40:16;;;;;;;2.00;0.70;;;20.30;45.60;;;;;;5091056;28;20036;-63
2021/04/06 15:42:43;;;;;;;4.95;0.77;;;20.30;47.10;;;;;;5078155;28;20024;-63
2021/04/06 15:45:09;;;;;;;3.58;0.60;;;20.30;46.80;;;;;;5089263;28;20054;-63
2021/04/06 15:47:34;;;;;;;1.15;0.50;;;20.40;47.50;;;;;;5084193;28;20028;-67
2021/04/06 15:50:00;;;;;;;3.42;0.80;;;20.50;48.10;;;;;;5077946;28;20032;-61
2021/04/06 15:52:27;;;;;;;2.30;0.50;;;20.50;49.10;;;;;;5095662;28;20088;-60
2021/04/06 15:54:53;;;;;;;1.73;0.57;;;20.60;48.70;;;;;;5088017;28;20429;-66
2021/04/06 15:57:19;;;;;;;1.08;0.75;;;20.70;48.40;;;;;;5077136;28;20027;-67
2021/04/06 15:59:45;;;;;;;3.10;0.77;;;20.60;48.80;;;;;;5101307;28;20025;-68
2021/04/06 16:02:11;;;;;;;1.73;0.80;;;20.60;48.90;;;;;;5112761;28;20032;-68
2021/04/06 16:04:37;;;;;;;1.45;0.63;;;20.50;49.60;;;;;;5109256;28;20031;-70
2021/04/06 16:07:02;;;;;;;2.17;0.70;;;20.40;50.10;;;;;;5108058;28;20103;-68
2021/04/06 16:09:28;;;;;;;3.22;0.80;;;20.40;50.20;;;;;;5100644;28;20429;-67
2021/04/06 16:11:53;;;;;;;1.38;0.63;;;20.40;50.70;;;;;;5100481;28;20037;-67
2021/04/06 16:14:19;;;;;;;3.90;0.80;;;20.40;50.80;;;;;;5103041;28;20032;-67
2021/04/06 16:16:44;;;;;;;1.17;0.60;;;20.30;51.20;;;;;;5097698;28;20448;-67
2021/04/06 16:19:10;;;;;;;2.20;0.90;;;20.30;51.20;;;;;;5100395;28;20091;-68
2021/04/06 16:21:36;;;;;;;3.78;0.70;;;20.30;51.70;;;;;;5101734;28;20080;-67
2021/04/06 16:24:01;;;;;;;1.55;0.65;;;20.20;51.50;;;;;;5097615;28;20029;-66
2021/04/06 16:26:27;;;;;;;1.13;0.60;;;20.20;51.80;;;;;;5096897;28;20111;-67
2021/04/06 16:28:53;;;;;;;1.30;0.68;;;20.20;51.60;;;;;;5094461;28;20040;-67
2021/04/06 16:31:19;;;;;;;2.15;0.70;;;20.20;52.00;;;;;;5093839;28;20046;-67
2021/04/06 16:33:47;;;;;;;3.50;0.60;;;20.20;51.80;;;;;;5094782;28;20028;-63
2021/04/06 16:36:13;;;;;;;2.05;0.55;;;20.30;51.40;;;;;;5098818;28;20024;-60
2021/04/06 16:38:39;;;;;;;3.00;0.60;;;20.40;51.60;;;;;;5101343;28;20032;-66